createdAt,value
2022-08-20T00:02:10.077Z,101382.75
2022-08-20T00:04:37.170Z,101384.19
2022-08-20T00:07:06.543Z,101386.78
2022-08-20T00:09:38.439Z,101385.16
2022-08-20T00:12:07.117Z,101377.00
2022-08-20T00:14:35.393Z,101392.66
2022-08-20T00:17:03.948Z,101383.91
2022-08-20T00:19:31.041Z,101380.75
2022-08-20T00:21:58.513Z,101384.25
2022-08-20T00:24:25.999Z,101380.03
2022-08-20T00:26:53.058Z,101381.06
2022-08-20T00:29:20.590Z,101377.00
2022-08-20T00:31:49.990Z,101378.84
2022-08-20T00:34:16.670Z,101378.47
2022-08-20T00:36:48.163Z,101374.19
2022-08-20T00:39:14.785Z,101377.84
2022-08-20T00:41:41.681Z,101382.78
2022-08-20T00:44:08.417Z,101383.59
2022-08-20T00:46:35.555Z,101381.97
2022-08-20T00:49:05.974Z,101380.34
2022-08-20T00:51:44.065Z,101379.97
2022-08-20T00:54:19.061Z,101380.59
2022-08-20T00:56:50.583Z,101380.75
2022-08-20T00:59:27.347Z,101380.19
2022-08-20T01:01:55.494Z,101382.25
2022-08-20T01:04:28.887Z,101383.09
2022-08-20T01:07:16.088Z,101372.34
2022-08-20T01:09:57.708Z,101378.09
2022-08-20T01:12:28.298Z,101382.78
2022-08-20T01:14:57.606Z,101381.34
2022-08-20T01:17:29.051Z,101383.81
2022-08-20T01:20:01.715Z,101386.47
2022-08-20T01:23:04.617Z,101389.28
2022-08-20T01:25:45.540Z,101387.91
2022-08-20T01:28:17.365Z,101381.41
2022-08-20T01:30:44.509Z,101378.78
2022-08-20T01:33:12.961Z,101377.38
2022-08-20T01:35:41.676Z,101378.81
2022-08-20T01:38:09.201Z,101382.28
2022-08-20T01:40:58.058Z,101382.66
2022-08-20T01:43:25.084Z,101387.97
2022-08-20T01:45:53.530Z,101391.25
2022-08-20T01:48:21.722Z,101389.03
2022-08-20T01:51:20.596Z,101398.97
2022-08-20T01:53:50.357Z,101401.41
2022-08-20T01:56:20.765Z,101391.25
2022-08-20T01:58:53.734Z,101398.94
2022-08-20T02:01:26.302Z,101397.91
2022-08-20T02:03:54.170Z,101396.91
2022-08-20T02:06:25.550Z,101396.13
2022-08-20T02:08:55.773Z,101395.34
2022-08-20T02:11:23.158Z,101393.56
2022-08-20T02:13:52.678Z,101396.81
2022-08-20T02:16:25.605Z,101384.03
2022-08-20T02:18:58.581Z,101398.84
2022-08-20T02:21:28.731Z,101394.13
2022-08-20T02:23:55.868Z,101402.25
2022-08-20T02:26:22.602Z,101406.72
2022-08-20T02:28:51.484Z,101411.19
2022-08-20T02:31:20.510Z,101405.66
2022-08-20T02:34:21.890Z,101408.91
2022-08-20T02:36:38.008Z,101402.19
2022-08-20T02:39:09.286Z,101409.72
2022-08-20T02:41:37.425Z,101400.97
2022-08-20T02:44:08.907Z,101401.81
2022-08-20T02:46:35.848Z,101402.44
2022-08-20T02:49:03.818Z,101400.22
2022-08-20T02:51:31.195Z,101398.38
2022-08-20T02:53:57.847Z,101399.38
2022-08-20T02:56:24.606Z,101401.22
2022-08-20T02:58:51.455Z,101400.44
2022-08-20T03:01:18.487Z,101408.72
2022-08-20T03:03:45.473Z,101407.91
2022-08-20T03:06:13.301Z,101408.91
2022-08-20T03:08:41.437Z,101411.78
2022-08-20T03:11:08.250Z,101406.72
2022-08-20T03:13:35.201Z,101403.09
2022-08-20T03:16:03.399Z,101398.41
2022-08-20T03:18:34.907Z,101406.31
2022-08-20T03:21:02.804Z,101407.53
2022-08-20T03:23:30.571Z,101400.63
2022-08-20T03:25:57.874Z,101410.41
2022-08-20T03:28:24.741Z,101412.84
2022-08-20T03:30:51.558Z,101405.13
2022-08-20T03:33:20.253Z,101404.31
2022-08-20T03:35:47.766Z,101405.16
2022-08-20T03:38:17.508Z,101421.78
2022-08-20T03:40:48.643Z,101418.13
2022-08-20T03:43:15.322Z,101415.72
2022-08-20T03:45:44.267Z,101422.59
2022-08-20T03:48:15.218Z,101425.41
2022-08-20T03:50:42.576Z,101418.94
2022-08-20T03:53:13.087Z,101425.22
2022-08-20T03:55:45.268Z,101419.34
2022-08-20T03:58:13.563Z,101417.31
2022-08-20T04:00:51.297Z,101427.00
2022-08-20T04:03:18.252Z,101432.88
2022-08-20T04:05:46.104Z,101431.91
2022-08-20T04:08:22.778Z,101434.16
2022-08-20T04:10:50.827Z,101435.38
2022-08-20T04:13:19.775Z,101442.25
2022-08-20T04:15:49.721Z,101432.75
2022-08-20T04:18:20.569Z,101441.66
2022-08-20T04:20:47.954Z,101442.81
2022-08-20T04:23:15.036Z,101443.03
2022-08-20T04:25:43.358Z,101440.44
2022-08-20T04:28:28.688Z,101446.72
2022-08-20T04:30:58.169Z,101444.06
2022-08-20T04:33:33.730Z,101444.06
2022-08-20T04:36:02.842Z,101441.19
2022-08-20T04:38:50.095Z,101444.25
2022-08-20T04:41:21.139Z,101446.88
2022-08-20T04:43:51.283Z,101463.47
2022-08-20T04:46:18.213Z,101449.28
2022-08-20T04:48:48.620Z,101452.91
2022-08-20T04:51:18.289Z,101461.59
2022-08-20T04:53:52.167Z,101459.16
2022-08-20T04:56:26.435Z,101461.59
2022-08-20T04:58:55.990Z,101471.16
2022-08-20T05:01:24.234Z,101473.00
2022-08-20T05:03:53.582Z,101474.44
2022-08-20T05:06:21.948Z,101468.75
2022-08-20T05:08:48.679Z,101474.03
2022-08-20T05:11:33.182Z,101472.41
2022-08-20T05:14:02.384Z,101479.28
2022-08-20T05:16:32.418Z,101480.28
2022-08-20T05:18:59.091Z,101485.78
2022-08-20T05:21:25.810Z,101481.94
2022-08-20T05:23:52.631Z,101493.28
2022-08-20T05:26:20.301Z,101487.19
2022-08-20T05:28:57.553Z,101492.28
2022-08-20T05:31:32.665Z,101490.84
2022-08-20T05:34:11.142Z,101495.53
2022-08-20T05:36:56.345Z,101501.03
2022-08-20T05:39:23.199Z,101505.66
2022-08-20T05:41:51.066Z,101502.44
2022-08-20T05:44:20.497Z,101509.41
2022-08-20T05:46:48.113Z,101508.22
2022-08-20T05:49:20.002Z,101508.19
2022-08-20T05:51:47.650Z,101511.47
2022-08-20T05:54:14.839Z,101505.97
2022-08-20T05:56:41.768Z,101514.00
2022-08-20T05:59:09.994Z,101504.53
2022-08-20T06:01:39.016Z,101502.69
2022-08-20T06:04:24.886Z,101504.31
2022-08-20T06:06:54.101Z,101505.97
2022-08-20T06:09:30.522Z,101515.06
2022-08-20T06:12:04.457Z,101511.19
2022-08-20T06:14:32.457Z,101521.91
2022-08-20T06:17:16.461Z,101519.25
2022-08-20T06:19:46.140Z,101521.53
2022-08-20T06:22:21.060Z,101520.72
2022-08-20T06:24:53.163Z,101527.63
2022-08-20T06:27:20.563Z,101518.25
2022-08-20T06:29:47.722Z,101520.72
2022-08-20T06:32:15.065Z,101516.59
2022-08-20T06:34:49.940Z,101519.84
2022-08-20T06:37:30.831Z,101522.03
2022-08-20T06:40:07.186Z,101523.66
2022-08-20T06:42:34.724Z,101524.66
2022-08-20T06:45:04.723Z,101525.03
2022-08-20T06:47:31.702Z,101519.72
2022-08-20T06:49:58.641Z,101524.38
2022-08-20T06:52:27.123Z,101526.63
2022-08-20T06:55:12.283Z,101528.22
2022-08-20T06:57:40.229Z,101513.81
2022-08-20T07:00:14.593Z,101523.75
2022-08-20T07:02:41.993Z,101527.38
2022-08-20T07:05:09.340Z,101539.19
2022-08-20T07:07:37.347Z,101542.69
2022-08-20T07:10:07.396Z,101550.00
2022-08-20T07:12:36.503Z,101545.59
2022-08-20T07:15:05.677Z,101546.22
2022-08-20T07:17:32.416Z,101554.31
2022-08-20T07:19:59.149Z,101550.16
2022-08-20T07:22:25.875Z,101553.00
2022-08-20T07:24:52.782Z,101554.63
2022-08-20T07:27:23.432Z,101555.72
2022-08-20T07:30:12.903Z,101559.00
2022-08-20T07:32:45.161Z,101558.31
2022-08-20T07:35:15.169Z,101570.66
2022-08-20T07:37:46.601Z,101565.63
2022-08-20T07:40:21.306Z,101567.03
2022-08-20T07:42:50.735Z,101577.44
2022-08-20T07:45:20.951Z,101572.16
2022-08-20T07:47:47.979Z,101576.44
2022-08-20T07:50:17.857Z,101576.31
2022-08-20T07:52:45.753Z,101565.78
2022-08-20T07:55:15.887Z,101576.34
2022-08-20T07:57:45.824Z,101578.97
2022-08-20T08:00:14.339Z,101583.41
2022-08-20T08:02:41.883Z,101588.34
2022-08-20T08:05:09.723Z,101582.63
2022-08-20T08:07:37.902Z,101586.88
2022-08-20T08:10:10.702Z,101585.13
2022-08-20T08:12:43.939Z,101572.91
2022-08-20T08:15:15.573Z,101579.78
2022-08-20T08:17:44.648Z,101592.75
2022-08-20T08:20:12.386Z,101576.34
2022-08-20T08:22:44.411Z,101590.41
2022-08-20T08:25:12.943Z,101585.47
2022-08-20T08:27:40.530Z,101587.59
2022-08-20T08:30:09.263Z,101590.41
2022-08-20T08:33:00.969Z,101590.94
2022-08-20T08:35:27.919Z,101595.53
2022-08-20T08:37:58.128Z,101587.94
2022-08-20T08:40:27.736Z,101596.78
2022-08-20T08:42:58.462Z,101598.19
2022-08-20T08:45:45.708Z,101598.69
2022-08-20T08:48:18.637Z,101589.16
2022-08-20T08:50:53.356Z,101599.75
2022-08-20T08:53:45.687Z,101595.91
2022-08-20T08:56:14.794Z,101594.13
2022-08-20T08:58:44.738Z,101595.78
2022-08-20T09:01:55.132Z,101601.94
2022-08-20T09:04:05.577Z,101601.34
2022-08-20T09:06:32.798Z,101604.06
2022-08-20T09:09:09.648Z,101603.03
2022-08-20T09:12:06.892Z,101609.38
2022-08-20T09:14:40.289Z,101600.16
2022-08-20T09:17:09.067Z,101593.09
2022-08-20T09:19:43.780Z,101590.66
2022-08-20T09:22:26.477Z,101601.16
2022-08-20T09:24:58.469Z,101588.13
2022-08-20T09:27:59.393Z,101578.75
2022-08-20T09:30:41.967Z,101593.56
2022-08-20T09:33:13.971Z,101578.16
2022-08-20T09:35:41.057Z,101582.91
2022-08-20T09:38:08.069Z,101575.63
2022-08-20T09:40:37.872Z,101583.13
2022-08-20T09:43:08.963Z,101578.13
2022-08-20T09:45:40.114Z,101568.84
2022-08-20T09:48:10.509Z,101570.91
2022-08-20T09:50:42.492Z,101582.41
2022-08-20T09:53:09.849Z,101584.13
2022-08-20T09:55:41.453Z,101578.91
2022-08-20T09:58:17.364Z,101575.53
2022-08-20T10:00:46.012Z,101577.41
2022-08-20T10:03:13.215Z,101578.25
2022-08-20T10:05:50.179Z,101577.84
2022-08-20T10:08:31.040Z,101583.34
2022-08-20T10:10:58.035Z,101580.16
2022-08-20T10:13:27.661Z,101580.88
2022-08-20T10:15:55.363Z,101587.66
2022-08-20T10:18:22.210Z,101584.91
2022-08-20T10:20:53.498Z,101586.50
2022-08-20T10:23:32.998Z,101580.41
2022-08-20T10:26:02.380Z,101583.06
2022-08-20T10:28:29.535Z,101583.34
2022-08-20T10:31:00.798Z,101591.91
2022-08-20T10:33:30.815Z,101579.44
2022-08-20T10:36:00.062Z,101578.25
2022-08-20T10:38:33.267Z,101584.19
2022-08-20T10:41:00.864Z,101579.66
2022-08-20T10:43:33.011Z,101582.50
2022-08-20T10:46:31.950Z,101587.66
2022-08-20T10:49:03.491Z,101586.97
2022-08-20T10:51:34.450Z,101590.44
2022-08-20T10:54:12.630Z,101584.09
2022-08-20T10:56:43.146Z,101577.63
2022-08-20T10:59:26.703Z,101583.56
2022-08-20T11:01:54.537Z,101579.53
2022-08-20T11:05:04.170Z,101587.25
2022-08-20T11:07:57.826Z,101588.44
2022-08-20T11:10:27.625Z,101570.06
2022-08-20T11:12:55.313Z,101592.31
2022-08-20T11:15:22.745Z,101583.41
2022-08-20T11:17:51.007Z,101594.88
2022-08-20T11:20:24.005Z,101576.91
2022-08-20T11:22:50.719Z,101593.78
2022-08-20T11:25:27.703Z,101580.81
2022-08-20T11:27:56.505Z,101583.09
2022-08-20T11:30:31.603Z,101584.94
2022-08-20T11:33:02.232Z,101583.91
2022-08-20T11:35:48.496Z,101581.31
2022-08-20T11:41:25.588Z,101572.66
2022-08-20T11:44:17.452Z,101576.59
2022-08-20T11:46:39.594Z,101591.34
2022-08-20T11:49:11.954Z,101571.56
2022-08-20T11:51:49.479Z,101571.44
2022-08-20T11:54:17.481Z,101565.31
2022-08-20T11:56:45.925Z,101576.72
2022-08-20T11:59:13.788Z,101560.72
2022-08-20T12:01:46.684Z,101561.16
2022-08-20T12:04:33.602Z,101559.34
2022-08-20T12:07:13.339Z,101566.34
2022-08-20T12:09:42.923Z,101582.16
2022-08-20T12:12:19.504Z,101573.78
2022-08-20T12:14:48.553Z,101572.69
2022-08-20T12:17:32.703Z,101567.75
2022-08-20T12:20:06.437Z,101555.41
2022-08-20T12:22:33.288Z,101568.03
2022-08-20T12:24:59.991Z,101551.63
2022-08-20T12:27:36.569Z,101552.41
2022-08-20T12:30:23.652Z,101561.53
2022-08-20T12:32:51.413Z,101561.38
2022-08-20T12:35:22.079Z,101555.38
2022-08-20T12:37:49.643Z,101552.25
2022-08-20T12:40:31.910Z,101555.09
2022-08-20T12:43:10.014Z,101554.94
2022-08-20T12:45:45.492Z,101565.06
2022-08-20T12:48:25.447Z,101559.94
2022-08-20T12:50:52.987Z,101545.84
2022-08-20T12:53:19.807Z,101565.34
2022-08-20T12:55:50.214Z,101569.78
2022-08-20T12:58:17.212Z,101578.69
2022-08-20T13:00:50.684Z,101569.91
2022-08-20T13:03:21.432Z,101587.75
2022-08-20T13:05:51.993Z,101576.88
2022-08-20T13:08:19.709Z,101576.41
2022-08-20T13:10:46.661Z,101564.88
2022-08-20T13:13:15.466Z,101571.06
2022-08-20T13:15:44.515Z,101576.84
2022-08-20T13:18:14.593Z,101572.31
2022-08-20T13:20:41.588Z,101573.09
2022-08-20T13:23:08.706Z,101571.78
2022-08-20T13:25:35.608Z,101572.22
2022-08-20T13:28:04.976Z,101574.56
2022-08-20T13:30:35.127Z,101570.38
2022-08-20T13:33:10.496Z,101576.41
2022-08-20T13:35:37.327Z,101580.03
2022-08-20T13:38:04.244Z,101567.59
2022-08-20T13:40:43.085Z,101576.84
2022-08-20T13:43:16.309Z,101554.41
2022-08-20T13:45:43.380Z,101556.25
2022-08-20T13:48:14.946Z,101556.78
2022-08-20T13:50:46.867Z,101564.38
2022-08-20T13:53:15.361Z,101568.97
2022-08-20T13:55:54.715Z,101556.56
2022-08-20T13:58:24.912Z,101575.19
2022-08-20T14:00:51.756Z,101575.41
2022-08-20T14:03:25.409Z,101576.56
2022-08-20T14:05:54.419Z,101575.03
2022-08-20T14:08:28.755Z,101560.34
2022-08-20T14:10:57.461Z,101552.53
2022-08-20T14:13:26.157Z,101558.84
2022-08-20T14:15:57.684Z,101565.13
2022-08-20T14:18:24.820Z,101568.41
2022-08-20T14:20:54.697Z,101569.88
2022-08-20T14:23:21.415Z,101581.91
2022-08-20T14:25:51.356Z,101570.31
2022-08-20T14:28:21.861Z,101566.09
2022-08-20T14:30:53.045Z,101566.66
2022-08-20T14:33:21.350Z,101575.66
2022-08-20T14:35:48.077Z,101563.81
2022-08-20T14:38:15.114Z,101553.47
2022-08-20T14:40:45.086Z,101552.06
2022-08-20T14:43:16.823Z,101550.59
2022-08-20T14:45:46.399Z,101538.34
2022-08-20T14:48:18.905Z,101547.91
2022-08-20T14:50:46.375Z,101542.75
2022-08-20T14:53:13.611Z,101566.84
2022-08-20T14:55:40.489Z,101553.50
2022-08-20T14:58:09.358Z,101547.19
2022-08-20T15:00:40.041Z,101543.84
2022-08-20T15:03:08.514Z,101547.47
2022-08-20T15:05:39.464Z,101560.16
2022-08-20T15:08:07.752Z,101561.78
2022-08-20T15:10:42.901Z,101563.88
2022-08-20T15:13:12.043Z,101555.81
2022-08-20T15:15:40.612Z,101541.16
2022-08-20T15:18:08.156Z,101555.78
2022-08-20T15:20:36.249Z,101548.56
2022-08-20T15:23:06.801Z,101558.09
2022-08-20T15:25:37.041Z,101551.41
2022-08-20T15:28:09.067Z,101555.44
2022-08-20T15:30:37.942Z,101557.44
2022-08-20T15:33:09.727Z,101562.53
2022-08-20T15:35:36.563Z,101553.81
2022-08-20T15:38:03.187Z,101558.09
2022-08-20T15:40:32.411Z,101552.94
2022-08-20T15:43:01.277Z,101555.53
2022-08-20T15:45:28.887Z,101569.16
2022-08-20T15:48:02.791Z,101564.06
2022-08-20T15:50:47.952Z,101565.06
2022-08-20T15:53:37.732Z,101549.44
2022-08-20T15:56:34.305Z,101563.97
2022-08-20T15:59:04.024Z,101568.09
2022-08-20T16:01:54.684Z,101569.72
2022-08-20T16:04:45.670Z,101581.91
2022-08-20T16:07:18.476Z,101567.25
2022-08-20T16:10:03.821Z,101567.72
2022-08-20T16:12:38.316Z,101572.69
2022-08-20T16:15:19.908Z,101568.59
2022-08-20T16:18:08.531Z,101571.50
2022-08-20T16:20:40.561Z,101564.66
2022-08-20T16:23:09.218Z,101555.16
2022-08-20T16:25:57.089Z,101571.59
2022-08-20T16:28:32.577Z,101566.16
2022-08-20T16:31:05.467Z,101572.47
2022-08-20T16:34:00.053Z,101558.22
2022-08-20T16:36:38.795Z,101564.72
2022-08-20T16:39:11.095Z,101563.47
2022-08-20T16:41:44.758Z,101566.59
2022-08-20T16:44:24.183Z,101569.63
2022-08-20T16:47:13.706Z,101573.06
2022-08-20T16:49:48.739Z,101566.59
2022-08-20T16:52:16.231Z,101565.09
2022-08-20T16:54:44.538Z,101567.88
2022-08-20T16:57:16.586Z,101572.41
2022-08-20T16:59:55.246Z,101573.06
2022-08-20T17:02:23.411Z,101570.78
2022-08-20T17:05:00.013Z,101565.59
2022-08-20T17:07:40.232Z,101576.69
2022-08-20T17:10:20.248Z,101573.09
2022-08-20T17:12:53.608Z,101579.69
2022-08-20T17:15:25.614Z,101575.53
2022-08-20T17:17:55.671Z,101571.59
2022-08-20T17:20:25.510Z,101571.41
2022-08-20T17:23:08.611Z,101572.53
2022-08-20T17:25:40.145Z,101575.31
2022-08-20T17:28:18.575Z,101568.97
2022-08-20T17:30:46.288Z,101571.09
2022-08-20T17:33:21.336Z,101569.59
2022-08-20T17:35:53.657Z,101567.03
2022-08-20T17:38:27.446Z,101571.69
2022-08-20T17:41:03.300Z,101568.06
2022-08-20T17:43:32.853Z,101576.72
2022-08-20T17:46:11.372Z,101574.56
2022-08-20T17:48:50.112Z,101575.88
2022-08-20T17:51:26.639Z,101574.47
2022-08-20T17:54:16.910Z,101574.81
2022-08-20T17:56:44.540Z,101578.50
2022-08-20T17:59:40.923Z,101577.47
2022-08-20T18:02:11.969Z,101570.44
2022-08-20T18:04:39.081Z,101576.22
2022-08-20T18:07:14.879Z,101579.25
2022-08-20T18:09:49.770Z,101571.41
2022-08-20T18:12:34.064Z,101573.47
2022-08-20T18:15:24.704Z,101577.31
2022-08-20T18:18:16.241Z,101591.38
2022-08-20T18:21:08.006Z,101591.00
2022-08-20T18:23:48.231Z,101578.22
2022-08-20T18:26:24.295Z,101585.34
2022-08-20T18:29:03.445Z,101587.41
2022-08-20T18:31:39.778Z,101588.72
2022-08-20T18:34:13.250Z,101580.22
2022-08-20T18:36:40.636Z,101589.66
2022-08-20T18:39:42.698Z,101585.28
2022-08-20T18:42:27.300Z,101587.72
2022-08-20T18:44:56.054Z,101583.97
2022-08-20T18:47:40.968Z,101590.56
2022-08-20T18:50:15.855Z,101587.59
2022-08-20T18:53:12.926Z,101583.19
2022-08-20T18:55:44.057Z,101590.59
2022-08-20T18:58:14.635Z,101582.53
2022-08-20T19:00:43.272Z,101590.69
2022-08-20T19:03:15.556Z,101591.47
2022-08-20T19:05:59.107Z,101592.53
2022-08-20T19:08:35.715Z,101594.84
2022-08-20T19:11:40.786Z,101593.88
2022-08-20T19:14:15.444Z,101594.34
2022-08-20T19:16:47.401Z,101594.50
2022-08-20T19:19:22.501Z,101591.66
2022-08-20T19:21:50.928Z,101594.75
2022-08-20T19:24:24.951Z,101590.53
2022-08-20T19:27:12.780Z,101590.72
2022-08-20T19:29:46.177Z,101589.31
2022-08-20T19:32:25.674Z,101598.28
2022-08-20T19:35:01.889Z,101603.38
2022-08-20T19:37:39.619Z,101599.88
2022-08-20T19:40:38.961Z,101590.97
2022-08-20T19:43:14.328Z,101597.44
2022-08-20T19:45:46.756Z,101592.41
2022-08-20T19:48:27.075Z,101603.19
2022-08-20T19:51:01.443Z,101605.47
2022-08-20T19:53:31.800Z,101598.34
2022-08-20T19:56:13.997Z,101582.72
2022-08-20T19:58:41.521Z,101588.56
2022-08-20T20:01:26.750Z,101600.78
2022-08-20T20:04:00.288Z,101606.84
2022-08-20T20:06:27.717Z,101599.13
2022-08-20T20:09:03.014Z,101599.91
2022-08-20T20:11:35.790Z,101598.94
2022-08-20T20:14:09.545Z,101595.88
2022-08-20T20:16:38.133Z,101596.50
2022-08-20T20:19:25.188Z,101591.41
2022-08-20T20:22:11.940Z,101586.91
2022-08-20T20:24:50.779Z,101590.13
2022-08-20T20:27:24.754Z,101590.94
2022-08-20T20:30:00.238Z,101588.28
2022-08-20T20:32:29.024Z,101594.94
2022-08-20T20:34:58.780Z,101578.25
2022-08-20T20:37:48.987Z,101579.91
2022-08-20T20:40:35.848Z,101580.22
2022-08-20T20:43:13.530Z,101590.34
2022-08-20T20:45:44.387Z,101587.56
2022-08-20T20:48:25.079Z,101589.19
2022-08-20T20:50:52.614Z,101589.84
2022-08-20T20:53:49.424Z,101583.31
2022-08-20T20:56:26.724Z,101579.81
2022-08-20T20:58:55.747Z,101572.84
2022-08-20T21:01:49.476Z,101579.66
2022-08-20T21:04:10.123Z,101576.78
2022-08-20T21:06:36.853Z,101572.72
2022-08-20T21:09:03.728Z,101572.91
2022-08-20T21:11:30.547Z,101568.81
2022-08-20T21:13:57.313Z,101579.38
2022-08-20T21:16:24.134Z,101577.34
2022-08-20T21:18:50.944Z,101582.63
2022-08-20T21:21:17.812Z,101571.44
2022-08-20T21:23:44.679Z,101574.53
2022-08-20T21:26:11.881Z,101584.88
2022-08-20T21:28:38.614Z,101583.69
2022-08-20T21:31:05.547Z,101583.53
2022-08-20T21:33:32.383Z,101581.88
2022-08-20T21:35:59.534Z,101576.81
2022-08-20T21:38:26.679Z,101583.34
2022-08-20T21:40:58.071Z,101569.03
2022-08-20T21:43:25.246Z,101574.28
2022-08-20T21:45:52.391Z,101573.56
2022-08-20T21:48:19.510Z,101588.25
2022-08-20T21:50:46.893Z,101597.13
2022-08-20T21:53:14.019Z,101589.06
2022-08-20T21:55:43.785Z,101594.91
2022-08-20T21:58:13.620Z,101577.72
2022-08-20T22:00:52.893Z,101579.72
2022-08-20T22:03:31.966Z,101575.72
2022-08-20T22:06:00.757Z,101580.50
2022-08-20T22:08:28.480Z,101571.34
2022-08-20T22:10:57.177Z,101571.72
2022-08-20T22:13:28.335Z,101580.72
2022-08-20T22:15:55.243Z,101573.59
2022-08-20T22:18:23.236Z,101566.44
2022-08-20T22:20:50.030Z,101569.44
2022-08-20T22:23:16.790Z,101576.66
2022-08-20T22:26:42.310Z,101580.66
2022-08-20T22:29:35.702Z,101563.38
2022-08-20T22:32:02.877Z,101566.72
2022-08-20T22:34:32.534Z,101563.91
2022-08-20T22:37:00.706Z,101564.00
2022-08-20T22:39:28.189Z,101565.97
2022-08-20T22:41:55.140Z,101567.53
2022-08-20T22:44:22.090Z,101564.72
2022-08-20T22:46:53.970Z,101563.09
2022-08-20T22:49:24.083Z,101570.81
2022-08-20T22:51:50.940Z,101552.50
2022-08-20T22:54:22.182Z,101562.75
2022-08-20T22:56:49.626Z,101551.69
2022-08-20T22:59:19.006Z,101549.16
2022-08-20T23:01:49.141Z,101550.78
2022-08-20T23:04:25.177Z,101564.38
2022-08-20T23:06:53.065Z,101555.47
2022-08-20T23:09:26.967Z,101566.91
2022-08-20T23:11:54.826Z,101555.22
2022-08-20T23:14:22.138Z,101562.56
2022-08-20T23:16:58.216Z,101553.78
2022-08-20T23:19:25.315Z,101544.88
2022-08-20T23:21:52.670Z,101544.09
2022-08-20T23:24:19.939Z,101557.13
2022-08-20T23:26:52.498Z,101548.16
2022-08-20T23:29:22.594Z,101552.94
2022-08-20T23:32:03.714Z,101552.06
2022-08-20T23:34:39.700Z,101547.81
2022-08-20T23:37:28.605Z,101543.06
2022-08-20T23:39:56.266Z,101546.81
2022-08-20T23:42:23.130Z,101549.34
2022-08-20T23:44:50.210Z,101547.06
2022-08-20T23:47:21.499Z,101556.38
2022-08-20T23:49:48.404Z,101556.75
2022-08-20T23:52:17.768Z,101555.13
2022-08-20T23:54:44.583Z,101548.88
2022-08-20T23:57:11.345Z,101542.00
2022-08-20T23:59:38.348Z,101555.13
